Terminal Aerodrome Forecast
Issued by NWS Boise, ID

Home | Current Version | Previous Version | Text Only | Print | Product List | Glossary On
Versions: 1 2 3 4 5 6 7 8 9 10 11 12 13 14 15 16 17 18
000
FTUS45 KBOI 221120
TAFBNO
TAF
KBNO 221120Z 2212/2312 05011KT P6SM VCSH SCT050 OVC100
     FM221500 05010KT 2SM -SN BR SCT015 OVC025
     FM222000 12008KT 2SM -SN BR SCT008 OVC015
     FM230000 VRB05KT P6SM SCT035 BKN100=

USA.gov is the U.S. government's official web portal to all federal, state and local government web resources and services.